Time;durP1;ratioP1;P1;durP2;ratioP2;P2;SDS_P1;SDS_P2;PMS_P1;PMS_P2;Temp;Humidity;BMP_temperature;BMP_pressure;BME280_temperature;BME280_humidity;BME280_pressure;Samples;Min_cycle;Max_cycle;Signal;HPM_P1;HPM_P2
2022/07/07 00:00:51;;;;;;;2.58;1.17;;;;;;;-141.50;100.00;63355.56;5021363;28;20053;-80
2022/07/07 00:03:18;;;;;;;2.67;0.77;;;;;;;-141.50;100.00;63355.56;5035537;28;20113;-80
2022/07/07 00:05:44;;;;;;;4.40;0.75;;;;;;;-141.50;100.00;63355.56;5046371;28;20029;-80
2022/07/07 00:08:11;;;;;;;8.27;1.38;;;;;;;-141.50;100.00;63355.56;5055470;28;20037;-79
2022/07/07 00:10:38;;;;;;;1.77;0.60;;;;;;;-141.50;100.00;63355.56;5050370;28;20045;-79
2022/07/07 00:13:05;;;;;;;5.15;0.90;;;;;;;-141.50;100.00;63355.56;5034101;28;20080;-78
2022/07/07 00:15:32;;;;;;;4.35;0.70;;;;;;;-141.50;100.00;63355.56;5035497;28;20045;-80
2022/07/07 00:17:59;;;;;;;4.60;0.90;;;;;;;-141.50;100.00;63355.56;5035985;28;20108;-80
2022/07/07 00:20:29;;;;;;;2.10;0.80;;;;;;;-141.50;100.00;63355.56;5021320;28;20180;-79
2022/07/07 00:22:57;;;;;;;2.80;0.60;;;;;;;-141.50;100.00;63355.56;5037886;28;20057;-79
2022/07/07 00:25:32;;;;;;;4.70;0.88;;;;;;;-141.50;100.00;63355.56;5007840;28;20056;-80
2022/07/07 00:27:59;;;;;;;4.57;0.80;;;;;;;-141.50;100.00;63355.56;5041386;28;20102;-80
2022/07/07 00:30:26;;;;;;;2.47;0.70;;;;;;;-141.50;100.00;63355.56;5038500;28;20111;-80
2022/07/07 00:32:53;;;;;;;4.30;0.95;;;;;;;-141.50;100.00;63355.56;5019220;28;20202;-80
2022/07/07 00:35:20;;;;;;;4.40;0.90;;;;;;;-141.50;100.00;63355.56;5020298;28;20080;-80
2022/07/07 00:37:47;;;;;;;5.03;0.73;;;;;;;-141.50;100.00;63355.56;5019234;28;20056;-79
2022/07/07 00:40:20;;;;;;;3.47;0.90;;;;;;;-141.50;100.00;63355.56;5038500;28;20063;-79
2022/07/07 00:42:47;;;;;;;3.08;0.80;;;;;;;-141.50;100.00;63355.56;5039300;28;20085;-80
2022/07/07 00:45:14;;;;;;;5.20;1.10;;;;;;;-141.50;100.00;63355.56;5030209;28;20053;-81
2022/07/07 00:47:44;;;;;;;1.98;0.95;;;;;;;-141.50;100.00;63355.56;5032256;28;20049;-80
2022/07/07 00:50:11;;;;;;;1.63;0.52;;;;;;;-141.50;100.00;63355.56;5052005;28;20107;-80
2022/07/07 00:52:38;;;;;;;3.63;0.70;;;;;;;-141.50;100.00;63355.56;5033636;28;20056;-80
2022/07/07 00:55:08;;;;;;;2.47;0.70;;;;;;;-141.50;100.00;63355.56;5046767;28;20328;-79
2022/07/07 00:57:35;;;;;;;2.45;0.70;;;;;;;-141.50;100.00;63355.56;5041623;28;20057;-81
2022/07/07 01:00:06;;;;;;;2.53;0.80;;;;;;;-141.50;100.00;63355.56;5052715;28;20041;-80
2022/07/07 01:02:33;;;;;;;6.53;0.90;;;;;;;-141.50;100.00;63355.56;5047440;28;20049;-80
2022/07/07 01:05:03;;;;;;;4.10;0.90;;;;;;;-141.50;100.00;63355.56;5049519;28;20045;-80
2022/07/07 01:07:51;;;;;;;6.65;0.73;;;;;;;-141.50;100.00;63355.56;5049494;28;20129;-81
2022/07/07 01:10:18;;;;;;;2.20;0.70;;;;;;;-141.50;100.00;63355.56;5053276;28;20060;-80
2022/07/07 01:12:45;;;;;;;1.75;0.63;;;;;;;-141.50;100.00;63355.56;5049198;28;20244;-80
2022/07/07 01:15:14;;;;;;;2.33;0.80;;;;;;;-141.50;100.00;63355.56;5024102;28;20086;-79
2022/07/07 01:17:43;;;;;;;2.80;0.80;;;;;;;-141.50;100.00;63355.56;5023597;28;20080;-80
2022/07/07 01:20:11;;;;;;;3.42;0.75;;;;;;;-141.50;100.00;63355.56;5040477;28;20118;-81
2022/07/07 01:22:39;;;;;;;6.05;0.88;;;;;;;-141.50;100.00;63355.56;5020932;28;20119;-79
2022/07/07 01:25:06;;;;;;;4.30;0.90;;;;;;;-141.50;100.00;63355.56;5036518;28;20045;-78
2022/07/07 01:27:33;;;;;;;3.60;0.85;;;;;;;-141.50;100.00;63355.56;5039116;28;20056;-80
2022/07/07 01:30:00;;;;;;;4.15;0.82;;;;;;;-141.50;100.00;63355.56;5036643;28;20111;-80
2022/07/07 01:32:27;;;;;;;5.63;0.73;;;;;;;-141.50;100.00;63355.56;5036925;28;20145;-78
2022/07/07 01:34:54;;;;;;;4.18;0.80;;;;;;;-141.50;100.00;63355.56;5036888;28;20097;-79
2022/07/07 01:37:29;;;;;;;2.38;0.80;;;;;;;-141.50;100.00;63355.56;5037988;28;20064;-79
2022/07/07 01:39:58;;;;;;;7.18;0.90;;;;;;;-141.50;100.00;63355.56;5038733;28;20065;-77
2022/07/07 01:42:25;;;;;;;6.97;0.85;;;;;;;-141.50;100.00;63355.56;5037912;28;20057;-78
2022/07/07 01:44:52;;;;;;;5.97;0.90;;;;;;;-141.50;100.00;63355.56;5037435;28;20115;-79
2022/07/07 01:47:21;;;;;;;2.22;0.70;;;;;;;-141.50;100.00;63355.56;5021463;28;20073;-79
2022/07/07 01:49:48;;;;;;;3.83;0.70;;;;;;;-141.50;100.00;63355.56;5038080;28;20088;-79
2022/07/07 01:52:15;;;;;;;3.17;0.75;;;;;;;-141.50;100.00;63355.56;5038452;28;20049;-78
2022/07/07 01:54:41;;;;;;;3.03;0.75;;;;;;;-141.50;100.00;63355.56;5038272;28;20076;-79
2022/07/07 01:57:12;;;;;;;5.03;0.77;;;;;;;-141.50;100.00;63355.56;5040031;28;20061;-79
2022/07/07 01:59:39;;;;;;;5.35;0.80;;;;;;;-141.50;100.00;63355.56;5039467;28;20057;-79
2022/07/07 02:02:09;;;;;;;2.67;0.65;;;;;;;-141.50;100.00;63355.56;5021340;28;20079;-79
2022/07/07 02:04:59;;;;;;;6.05;0.60;;;;;;;-141.50;100.00;63355.56;5038826;28;20525;-80
2022/07/07 02:07:26;;;;;;;2.55;0.70;;;;;;;-141.50;100.00;63355.56;5023559;28;20057;-78
2022/07/07 02:09:59;;;;;;;2.85;0.80;;;;;;;-141.50;100.00;63355.56;5020097;28;20067;-78
2022/07/07 02:12:27;;;;;;;3.20;0.60;;;;;;;-141.50;100.00;63355.56;5017435;28;20062;-78
2022/07/07 02:14:54;;;;;;;4.03;0.88;;;;;;;-141.50;100.00;63355.56;5018131;28;20063;-80
2022/07/07 02:17:21;;;;;;;3.13;0.70;;;;;;;-141.50;100.00;63355.56;5036575;28;20052;-79
2022/07/07 02:19:47;;;;;;;5.38;0.82;;;;;;;-141.50;100.00;63355.56;5036396;28;20061;-79
2022/07/07 02:22:14;;;;;;;4.20;0.80;;;;;;;-141.50;100.00;63355.56;5035277;28;20049;-78
2022/07/07 02:24:40;;;;;;;5.82;0.98;;;;;;;-141.50;100.00;63355.56;5037006;28;20049;-78
2022/07/07 02:27:07;;;;;;;6.50;1.40;;;;;;;-141.50;100.00;63355.56;5037904;28;20069;-79
2022/07/07 02:29:33;;;;;;;3.20;0.90;;;;;;;-141.50;100.00;63355.56;5037954;28;20053;-79
2022/07/07 02:32:00;;;;;;;4.43;0.82;;;;;;;-141.50;100.00;63355.56;5037611;28;20054;-79
2022/07/07 02:34:28;;;;;;;1.83;0.80;;;;;;;-141.50;100.00;63355.56;5038430;28;20066;-78
2022/07/07 02:36:55;;;;;;;5.03;0.95;;;;;;;-141.50;100.00;63355.56;5037354;28;20061;-78
2022/07/07 02:39:21;;;;;;;4.05;0.80;;;;;;;-141.50;100.00;63355.56;5038923;28;20080;-78
2022/07/07 02:41:48;;;;;;;4.15;0.85;;;;;;;-141.50;100.00;63355.56;5036199;28;20115;-77
2022/07/07 02:44:14;;;;;;;3.13;1.00;;;;;;;-141.50;100.00;63355.56;5018563;28;20104;-79
2022/07/07 02:46:41;;;;;;;5.40;0.98;;;;;;;-141.50;100.00;63355.56;5020065;28;20115;-79
2022/07/07 02:49:08;;;;;;;4.45;1.13;;;;;;;-141.50;100.00;63355.56;5038438;28;20050;-79
2022/07/07 02:51:37;;;;;;;5.35;0.95;;;;;;;-141.50;100.00;63355.56;5038083;28;20099;-79
2022/07/07 02:54:04;;;;;;;2.97;1.00;;;;;;;-141.50;100.00;63355.56;5019808;28;20056;-79
2022/07/07 02:56:31;;;;;;;8.07;1.05;;;;;;;-141.50;100.00;63355.56;5037664;28;20490;-78
2022/07/07 02:58:57;;;;;;;6.65;1.42;;;;;;;-141.50;100.00;63355.56;5040873;28;20067;-80
2022/07/07 03:01:24;;;;;;;8.98;1.20;;;;;;;-141.50;100.00;63355.56;5042112;28;20056;-79
2022/07/07 03:03:51;;;;;;;5.38;1.30;;;;;;;-141.50;100.00;63355.56;5053593;28;20038;-80
2022/07/07 03:06:18;;;;;;;9.77;1.75;;;;;;;-141.50;100.00;63355.56;5046401;28;20433;-79
2022/07/07 03:08:45;;;;;;;6.03;1.15;;;;;;;-141.50;100.00;63355.56;5033750;28;20429;-78
2022/07/07 03:11:12;;;;;;;2.35;1.13;;;;;;;-141.50;100.00;63355.56;5033973;28;20132;-79
2022/07/07 03:13:38;;;;;;;6.47;1.30;;;;;;;-141.50;100.00;63355.56;5032852;28;20088;-79
2022/07/07 03:16:06;;;;;;;5.72;1.58;;;;;;;-141.50;100.00;63355.56;5034582;28;20723;-80
2022/07/07 03:18:32;;;;;;;8.75;1.25;;;;;;;-141.50;100.00;63355.56;5033135;28;20045;-80
2022/07/07 03:20:59;;;;;;;6.68;1.20;;;;;;;-141.50;100.00;63355.56;5017089;28;20065;-79
2022/07/07 03:23:26;;;;;;;6.93;1.60;;;;;;;-141.50;100.00;63355.56;5035124;28;20537;-78
2022/07/07 03:25:53;;;;;;;7.53;1.27;;;;;;;-141.50;100.00;63355.56;5015195;28;20168;-79
2022/07/07 03:28:20;;;;;;;7.32;1.50;;;;;;;-141.50;100.00;63355.56;5014094;28;20530;-78
2022/07/07 03:30:47;;;;;;;3.13;1.30;;;;;;;-141.50;100.00;63355.56;5025860;28;20438;-80
2022/07/07 03:33:17;;;;;;;7.45;1.40;;;;;;;-141.50;100.00;63355.56;5053767;28;20057;-79
2022/07/07 03:35:47;;;;;;;5.78;1.50;;;;;;;-141.50;100.00;63355.56;5037413;28;20049;-78
2022/07/07 03:38:13;;;;;;;4.78;1.40;;;;;;;-141.50;100.00;63355.56;5038304;28;20057;-78
2022/07/07 03:40:40;;;;;;;3.58;1.30;;;;;;;-141.50;100.00;63355.56;5032748;28;20479;-79
2022/07/07 03:43:06;;;;;;;6.63;1.65;;;;;;;-141.50;100.00;63355.56;5034042;28;20136;-80
2022/07/07 03:45:35;;;;;;;5.65;1.50;;;;;;;-141.50;100.00;63355.56;5027648;28;20128;-77
2022/07/07 03:48:02;;;;;;;6.20;1.55;;;;;;;-141.50;100.00;63355.56;5029357;28;20050;-78
2022/07/07 03:50:29;;;;;;;5.13;1.67;;;;;;;-141.50;100.00;63355.56;5024426;28;20049;-78
2022/07/07 03:52:55;;;;;;;5.68;1.80;;;;;;;-141.50;100.00;63355.56;5030478;28;20049;-80
2022/07/07 03:55:23;;;;;;;6.22;1.73;;;;;;;-141.50;100.00;63355.56;5033499;28;20046;-79
2022/07/07 03:57:56;;;;;;;4.28;1.55;;;;;;;-141.50;100.00;63355.56;5030797;28;20046;-80
2022/07/07 04:00:22;;;;;;;8.13;1.60;;;;;;;-141.50;100.00;63355.56;5024489;28;20077;-79
2022/07/07 04:02:49;;;;;;;8.40;2.03;;;;;;;-141.50;100.00;63355.56;5020513;28;20073;-79
2022/07/07 04:05:17;;;;;;;6.05;1.48;;;;;;;-141.50;100.00;63355.56;5021337;28;20053;-80
2022/07/07 04:07:47;;;;;;;4.40;1.70;;;;;;;-141.50;100.00;63355.56;5029377;28;20054;-80
2022/07/07 04:10:15;;;;;;;3.97;1.48;;;;;;;-141.50;100.00;63355.56;5026399;28;20054;-79
2022/07/07 04:12:41;;;;;;;6.28;1.50;;;;;;;-141.50;100.00;63355.56;5026762;28;20083;-81
2022/07/07 04:15:08;;;;;;;5.72;1.50;;;;;;;-141.50;100.00;63355.56;5019541;28;20088;-79
2022/07/07 04:17:35;;;;;;;5.75;1.60;;;;;;;-141.50;100.00;63355.56;5019989;28;20169;-79
2022/07/07 04:20:03;;;;;;;7.20;1.33;;;;;;;-141.50;100.00;63355.56;5019192;28;20613;-80
2022/07/07 04:22:30;;;;;;;3.78;1.40;;;;;;;-141.50;100.00;63355.56;5022827;28;20063;-79
2022/07/07 04:24:56;;;;;;;5.80;1.50;;;;;;;-141.50;100.00;63355.56;5021178;28;20045;-78
2022/07/07 04:27:23;;;;;;;9.48;1.77;;;;;;;-141.50;100.00;63355.56;5017058;28;20054;-81
2022/07/07 04:29:49;;;;;;;9.93;1.92;;;;;;;-141.50;100.00;63355.56;5019456;28;20045;-78
2022/07/07 04:32:16;;;;;;;8.02;1.85;;;;;;;-141.50;100.00;63355.56;5016206;28;20049;-79
2022/07/07 04:34:43;;;;;;;7.28;2.05;;;;;;;-141.50;100.00;63355.56;5017495;28;20113;-79
2022/07/07 04:37:09;;;;;;;9.32;1.80;;;;;;;-141.50;100.00;63355.56;5001963;28;20072;-79
2022/07/07 04:39:36;;;;;;;6.72;2.55;;;;;;;-141.50;100.00;63355.56;5019304;28;20128;-77
2022/07/07 04:42:04;;;;;;;5.10;2.22;;;;;;;-141.50;100.00;63355.56;5018263;28;20069;-79
2022/07/07 04:44:30;;;;;;;4.63;2.03;;;;;;;-141.50;100.00;63355.56;5019984;28;20084;-79
2022/07/07 04:46:57;;;;;;;4.97;2.17;;;;;;;-141.50;100.00;63355.56;5031159;28;20061;-78
2022/07/07 04:49:24;;;;;;;4.68;1.95;;;;;;;-141.50;100.00;63355.56;5037873;28;20060;-79
2022/07/07 04:51:53;;;;;;;8.95;2.00;;;;;;;-141.50;100.00;63355.56;5020904;28;20111;-79
2022/07/07 04:54:20;;;;;;;7.28;1.88;;;;;;;-141.50;100.00;63355.56;5038205;28;20057;-79
2022/07/07 04:56:47;;;;;;;4.13;1.77;;;;;;;-141.50;100.00;63355.56;5038529;28;20054;-78
2022/07/07 04:59:13;;;;;;;7.72;1.90;;;;;;;-141.50;100.00;63355.56;5036385;28;20053;-79
2022/07/07 05:01:40;;;;;;;3.95;1.85;;;;;;;-141.50;100.00;63355.56;5038264;28;20050;-79
2022/07/07 05:04:07;;;;;;;4.60;2.10;;;;;;;-141.50;100.00;63355.56;5037841;28;20069;-78
2022/07/07 05:06:33;;;;;;;4.78;1.73;;;;;;;-141.50;100.00;63355.56;5041368;28;20119;-78
2022/07/07 05:09:00;;;;;;;5.38;2.08;;;;;;;-141.50;100.00;63355.56;5042165;28;20076;-79
2022/07/07 05:11:27;;;;;;;6.60;2.15;;;;;;;-141.50;100.00;63355.56;5050710;28;20044;-78
2022/07/07 05:13:53;;;;;;;9.57;2.47;;;;;;;-141.50;100.00;63355.56;5048195;28;20096;-78
2022/07/07 05:16:20;;;;;;;9.02;2.70;;;;;;;-141.50;100.00;63355.56;5044082;28;20073;-81
2022/07/07 05:18:47;;;;;;;5.85;2.15;;;;;;;-141.50;100.00;63355.56;5046726;28;20045;-80
2022/07/07 05:21:13;;;;;;;8.88;2.33;;;;;;;-141.50;100.00;63355.56;5044941;28;20053;-80
2022/07/07 05:23:40;;;;;;;6.70;2.30;;;;;;;-141.50;100.00;63355.56;5045585;28;20061;-79
2022/07/07 05:26:07;;;;;;;6.88;2.00;;;;;;;-141.50;100.00;63355.56;5046254;28;20053;-80
2022/07/07 05:28:36;;;;;;;5.20;1.80;;;;;;;-141.50;100.00;63355.56;5045154;28;20045;-81
2022/07/07 05:31:02;;;;;;;7.38;1.67;;;;;;;-141.50;100.00;63355.56;5044178;28;20064;-80
2022/07/07 05:33:29;;;;;;;6.10;1.92;;;;;;;-141.50;100.00;63355.56;5043891;28;20096;-80
2022/07/07 05:35:56;;;;;;;6.13;1.50;;;;;;;-141.50;100.00;63355.56;5026774;28;20072;-80
2022/07/07 05:38:28;;;;;;;5.20;1.60;;;;;;;-141.50;100.00;63355.56;5044044;28;20548;-80
2022/07/07 05:40:55;;;;;;;4.78;1.90;;;;;;;-141.50;100.00;63355.56;5044554;28;20053;-80
2022/07/07 05:43:21;;;;;;;7.30;1.58;;;;;;;-141.50;100.00;63355.56;5040182;28;20057;-80
2022/07/07 05:45:48;;;;;;;5.63;1.70;;;;;;;-141.50;100.00;63355.56;5044503;28;20053;-80
2022/07/07 05:48:15;;;;;;;4.72;1.40;;;;;;;-141.50;100.00;63355.56;5013474;28;20065;-81
2022/07/07 05:50:42;;;;;;;7.78;2.22;;;;;;;-141.50;100.00;63355.56;5024069;28;20069;-79
2022/07/07 05:53:08;;;;;;;6.20;1.45;;;;;;;-141.50;100.00;63355.56;5023493;28;20080;-79
2022/07/07 05:55:35;;;;;;;3.35;1.55;;;;;;;-141.50;100.00;63355.56;5023231;28;20101;-80
2022/07/07 05:58:05;;;;;;;5.95;1.77;;;;;;;-141.50;100.00;63355.56;5024588;28;20045;-80
2022/07/07 06:00:32;;;;;;;11.30;2.67;;;;;;;-141.50;100.00;63355.56;5025026;28;20077;-79
2022/07/07 06:02:59;;;;;;;4.45;1.90;;;;;;;-141.50;100.00;63355.56;5024206;28;20057;-80
2022/07/07 06:05:41;;;;;;;10.02;1.90;;;;;;;-141.50;100.00;63355.56;5024473;28;20058;-81
2022/07/07 06:08:09;;;;;;;6.00;1.80;;;;;;;-141.50;100.00;63355.56;5008267;28;20057;-81
2022/07/07 06:10:36;;;;;;;7.78;2.15;;;;;;;-141.50;100.00;63355.56;5024521;28;20064;-80
2022/07/07 06:13:03;;;;;;;6.53;1.70;;;;;;;-141.50;100.00;63355.56;5026830;28;20072;-80
2022/07/07 06:15:33;;;;;;;6.47;2.22;;;;;;;-141.50;100.00;63355.56;5009718;28;20058;-82
2022/07/07 06:18:01;;;;;;;3.38;2.00;;;;;;;-141.50;100.00;63355.56;5028416;28;20053;-81
2022/07/07 06:20:34;;;;;;;2.58;1.90;;;;;;;-141.50;100.00;63355.56;5028199;28;20104;-81
2022/07/07 06:23:01;;;;;;;6.30;2.00;;;;;;;-141.50;100.00;63355.56;5010461;28;20045;-80
2022/07/07 06:25:30;;;;;;;3.55;1.92;;;;;;;-141.50;100.00;63355.56;5013181;28;20101;-81
2022/07/07 06:27:58;;;;;;;8.23;2.58;;;;;;;-141.50;100.00;63355.56;5009826;28;20046;-79
2022/07/07 06:30:29;;;;;;;5.75;2.42;;;;;;;-141.50;100.00;63355.56;5027687;28;20077;-80
2022/07/07 06:32:59;;;;;;;9.20;2.70;;;;;;;-141.50;100.00;63355.56;5027570;28;20072;-79
2022/07/07 06:35:32;;;;;;;10.50;2.45;;;;;;;-141.50;100.00;63355.56;5009536;28;20538;-80
2022/07/07 06:37:59;;;;;;;7.45;2.92;;;;;;;-141.50;100.00;63355.56;5026308;28;20054;-79
2022/07/07 06:40:29;;;;;;;11.75;3.17;;;;;;;-141.50;100.00;63355.56;5029869;28;20060;-80
2022/07/07 06:43:03;;;;;;;8.20;3.30;;;;;;;-141.50;100.00;63355.56;5026427;28;20081;-80
2022/07/07 06:45:38;;;;;;;7.47;3.50;;;;;;;-141.50;100.00;63355.56;5027689;28;20118;-80
2022/07/07 06:48:10;;;;;;;8.70;3.30;;;;;;;-141.50;100.00;63355.56;5044296;28;20057;-80
2022/07/07 06:50:37;;;;;;;8.80;3.40;;;;;;;-141.50;100.00;63355.56;5048453;28;20488;-80
2022/07/07 06:53:08;;;;;;;7.85;3.75;;;;;;;-141.50;100.00;63355.56;5049069;28;20064;-80
2022/07/07 06:55:39;;;;;;;8.57;3.60;;;;;;;-141.50;100.00;63355.56;5046968;28;20103;-80
2022/07/07 06:58:09;;;;;;;5.95;3.38;;;;;;;-141.50;100.00;63355.56;5047466;28;20053;-81
2022/07/07 07:00:38;;;;;;;11.75;3.72;;;;;;;-141.50;100.00;63355.56;5055544;28;20065;-79
2022/07/07 07:03:06;;;;;;;11.52;4.00;;;;;;;-141.50;100.00;63355.56;5056858;28;20061;-80
2022/07/07 07:05:44;;;;;;;12.20;4.53;;;;;;;-141.50;100.00;63355.56;5032623;28;20105;-80
2022/07/07 07:08:14;;;;;;;10.52;4.10;;;;;;;-141.50;100.00;63355.56;5048039;28;20084;-80
2022/07/07 07:10:44;;;;;;;7.95;4.00;;;;;;;-141.50;100.00;63355.56;5047565;28;20049;-80
2022/07/07 07:13:11;;;;;;;10.75;3.65;;;;;;;-141.50;100.00;63355.56;5045553;28;20053;-80
2022/07/07 07:15:39;;;;;;;8.48;3.53;;;;;;;-141.50;100.00;63355.56;5046617;28;20128;-81
2022/07/07 07:18:06;;;;;;;11.60;3.60;;;;;;;-141.50;100.00;63355.56;5048096;28;20237;-81
2022/07/07 07:20:33;;;;;;;7.88;3.03;;;;;;;-141.50;100.00;63355.56;5044340;28;20049;-80
2022/07/07 07:23:00;;;;;;;9.05;3.40;;;;;;;-141.50;100.00;63355.56;5049572;28;20049;-79
2022/07/07 07:25:30;;;;;;;8.85;4.10;;;;;;;-141.50;100.00;63355.56;5049862;28;20076;-81
2022/07/07 07:27:56;;;;;;;7.85;4.28;;;;;;;-141.50;100.00;63355.56;5049672;28;20053;-78
2022/07/07 07:30:26;;;;;;;11.02;4.35;;;;;;;-141.50;100.00;63355.56;5032399;28;20096;-79
2022/07/07 07:32:52;;;;;;;7.65;3.97;;;;;;;-141.50;100.00;63355.56;5045014;28;20049;-80
2022/07/07 07:35:19;;;;;;;7.72;4.05;;;;;;;-141.50;100.00;63355.56;5048190;28;20049;-80
2022/07/07 07:37:46;;;;;;;6.65;4.65;;;;;;;-141.50;100.00;63355.56;5049210;28;20046;-79
2022/07/07 07:40:14;;;;;;;9.55;4.97;;;;;;;-141.50;100.00;63355.56;5047504;28;20076;-80
2022/07/07 07:42:41;;;;;;;9.20;5.43;;;;;;;-141.50;100.00;63355.56;5045376;28;20084;-80
2022/07/07 07:45:11;;;;;;;8.90;5.43;;;;;;;-141.50;100.00;63355.56;5029872;28;20076;-80
2022/07/07 07:47:43;;;;;;;10.77;5.47;;;;;;;-141.50;100.00;63355.56;5045999;28;20121;-78
2022/07/07 07:50:12;;;;;;;13.10;6.65;;;;;;;-141.50;100.00;63355.56;5046934;28;20049;-79
2022/07/07 07:52:40;;;;;;;7.93;5.60;;;;;;;-141.50;100.00;63355.56;5046175;28;20057;-79
2022/07/07 07:55:10;;;;;;;10.02;5.47;;;;;;;-141.50;100.00;63355.56;5046629;28;20049;-79
2022/07/07 07:57:37;;;;;;;7.50;5.22;;;;;;;-141.50;100.00;63355.56;5045429;28;20053;-81
2022/07/07 08:00:06;;;;;;;7.90;5.43;;;;;;;-141.50;100.00;63355.56;5044425;28;20049;-80
2022/07/07 08:02:34;;;;;;;10.93;5.75;;;;;;;-141.50;100.00;63355.56;5028044;28;20111;-79
2022/07/07 08:05:04;;;;;;;9.00;5.93;;;;;;;-141.50;100.00;63355.56;5046875;28;20103;-79
2022/07/07 08:07:32;;;;;;;14.00;6.75;;;;;;;-141.50;100.00;63355.56;5048692;28;20353;-80
2022/07/07 08:10:03;;;;;;;10.20;6.93;;;;;;;-141.50;100.00;63355.56;5047839;28;20048;-80
2022/07/07 08:12:32;;;;;;;9.15;6.43;;;;;;;-141.50;100.00;63355.56;5027998;28;20550;-80
2022/07/07 08:15:02;;;;;;;9.35;5.80;;;;;;;-141.50;100.00;63355.56;5028028;28;20105;-79
2022/07/07 08:17:29;;;;;;;11.13;6.28;;;;;;;-141.50;100.00;63355.56;5046171;28;20493;-81
2022/07/07 08:19:56;;;;;;;8.50;5.95;;;;;;;-141.50;100.00;63355.56;5045526;28;20049;-80
2022/07/07 08:22:28;;;;;;;8.55;6.28;;;;;;;-141.50;100.00;63355.56;5030194;28;20049;-80
2022/07/07 08:25:01;;;;;;;10.38;6.60;;;;;;;-141.50;100.00;63355.56;5030212;28;20490;-80
2022/07/07 08:27:31;;;;;;;10.50;6.28;;;;;;;-141.50;100.00;63355.56;5047915;28;20050;-80
2022/07/07 08:30:05;;;;;;;11.68;5.53;;;;;;;-141.50;100.00;63355.56;5028906;28;20045;-79
2022/07/07 08:32:35;;;;;;;10.52;6.00;;;;;;;-141.50;100.00;63355.56;5043866;28;20053;-80
2022/07/07 08:35:02;;;;;;;9.15;5.93;;;;;;;-141.50;100.00;63355.56;5029915;28;20061;-80
2022/07/07 08:37:29;;;;;;;10.57;6.13;;;;;;;-141.50;100.00;63355.56;5045314;28;20057;-79
2022/07/07 08:39:57;;;;;;;10.77;6.15;;;;;;;-141.50;100.00;63355.56;5031653;28;20076;-81
2022/07/07 08:42:24;;;;;;;12.40;5.68;;;;;;;-141.50;100.00;63355.56;5048019;28;20063;-79
2022/07/07 08:44:54;;;;;;;11.25;6.10;;;;;;;-141.50;100.00;63355.56;5049714;28;20049;-80
2022/07/07 08:47:21;;;;;;;9.27;6.70;;;;;;;-141.50;100.00;63355.56;5050808;28;20099;-81
2022/07/07 08:49:48;;;;;;;9.07;6.72;;;;;;;-141.50;100.00;63355.56;5049834;28;20141;-82
2022/07/07 08:52:15;;;;;;;13.40;7.40;;;;;;;-141.50;100.00;63355.56;5032769;28;20057;-82
2022/07/07 08:54:43;;;;;;;12.80;7.40;;;;;;;-141.50;100.00;63355.56;5051854;28;20045;-81
2022/07/07 08:57:13;;;;;;;14.20;8.52;;;;;;;-141.50;100.00;63355.56;5049912;28;20056;-80
2022/07/07 08:59:40;;;;;;;11.65;8.70;;;;;;;-141.50;100.00;63355.56;5050384;28;20052;-81
2022/07/07 09:02:09;;;;;;;12.35;8.93;;;;;;;-141.50;100.00;63355.56;5051473;28;20060;-80
2022/07/07 09:04:40;;;;;;;14.70;10.05;;;;;;;-141.50;100.00;63355.56;5052127;28;20136;-80
2022/07/07 09:07:07;;;;;;;13.95;10.10;;;;;;;-141.50;100.00;63355.56;5051625;28;20049;-80
2022/07/07 09:09:38;;;;;;;15.63;10.23;;;;;;;-141.50;100.00;63355.56;5048261;28;20049;-81
2022/07/07 09:12:07;;;;;;;11.80;9.60;;;;;;;-141.50;100.00;63355.56;5046524;28;20057;-80
2022/07/07 09:14:42;;;;;;;13.02;10.05;;;;;;;-141.50;100.00;63355.56;5047007;28;20550;-82
2022/07/07 09:17:32;;;;;;;16.67;10.48;;;;;;;-141.50;100.00;63355.56;5048811;28;20034;-81
2022/07/07 09:20:12;;;;;;;13.98;10.57;;;;;;;-141.50;100.00;63355.56;5030445;28;20049;-81
2022/07/07 09:22:46;;;;;;;13.65;10.93;;;;;;;-141.50;100.00;63355.56;5030420;28;20065;-80
2022/07/07 09:25:15;;;;;;;14.85;11.25;;;;;;;-141.50;100.00;63355.56;5047000;28;20513;-81
2022/07/07 09:28:04;;;;;;;14.90;11.93;;;;;;;-141.50;100.00;63355.56;5031297;28;20053;-81
2022/07/07 09:30:38;;;;;;;16.50;13.38;;;;;;;-141.50;100.00;63355.56;5048584;28;20049;-78
2022/07/07 09:33:14;;;;;;;21.20;14.25;;;;;;;-141.50;100.00;63355.56;5048091;28;20061;-79
2022/07/07 09:38:31;;;;;;;19.00;13.43;;;;;;;-141.50;100.00;63355.56;5033752;28;20304;-81
2022/07/07 09:41:10;;;;;;;19.35;13.43;;;;;;;-141.50;100.00;63355.56;5046389;28;20109;-80
2022/07/07 09:43:48;;;;;;;17.50;13.98;;;;;;;-141.50;100.00;63355.56;5031668;28;20062;-81
2022/07/07 09:46:25;;;;;;;18.88;13.65;;;;;;;-141.50;100.00;63355.56;5048241;28;20065;-80
2022/07/07 09:48:59;;;;;;;17.50;13.88;;;;;;;-141.50;100.00;63355.56;5032296;28;20049;-79
2022/07/07 09:51:34;;;;;;;19.73;14.43;;;;;;;-141.50;100.00;63355.56;5028308;28;20076;-80
2022/07/07 09:54:06;;;;;;;16.20;12.25;;;;;;;-141.50;100.00;63355.56;5027673;28;20061;-80
2022/07/07 09:56:38;;;;;;;15.40;11.63;;;;;;;-141.50;100.00;63355.56;5026931;28;20053;-80
2022/07/07 09:59:13;;;;;;;18.30;11.02;;;;;;;-141.50;100.00;63355.56;5009263;28;20056;-81
2022/07/07 10:01:45;;;;;;;14.43;10.98;;;;;;;-141.50;100.00;63355.56;5028533;28;20058;-79
2022/07/07 10:04:14;;;;;;;14.25;11.05;;;;;;;-141.50;100.00;63355.56;5008851;28;20046;-80
2022/07/07 10:06:44;;;;;;;13.10;9.10;;;;;;;-141.50;100.00;63355.56;5027050;28;20068;-81
2022/07/07 10:09:19;;;;;;;13.70;10.15;;;;;;;-141.50;100.00;63355.56;5027583;28;20060;-81
2022/07/07 10:11:53;;;;;;;13.77;8.70;;;;;;;-141.50;100.00;63355.56;5025015;28;20057;-80
2022/07/07 10:14:28;;;;;;;12.13;8.55;;;;;;;-141.50;100.00;63355.56;5026153;28;20281;-82
2022/07/07 10:17:00;;;;;;;9.05;7.47;;;;;;;-141.50;100.00;63355.56;5010731;28;20440;-81
2022/07/07 10:19:27;;;;;;;9.73;7.07;;;;;;;-141.50;100.00;63355.56;5028732;28;20077;-80
2022/07/07 10:21:56;;;;;;;11.63;6.53;;;;;;;-141.50;100.00;63355.56;5029586;28;20107;-80
2022/07/07 10:24:27;;;;;;;8.73;6.25;;;;;;;-141.50;100.00;63355.56;5034043;28;20061;-80
2022/07/07 10:26:58;;;;;;;10.05;5.45;;;;;;;-141.50;100.00;63355.56;5034465;28;20053;-79
2022/07/07 10:29:40;;;;;;;8.88;5.90;;;;;;;-141.50;100.00;63355.56;5011967;28;20100;-79
2022/07/07 10:32:08;;;;;;;6.53;5.55;;;;;;;-141.50;100.00;63355.56;5022839;28;20482;-79
2022/07/07 10:34:37;;;;;;;9.55;5.32;;;;;;;-141.50;100.00;63355.56;5026345;28;20457;-80
2022/07/07 10:37:05;;;;;;;8.77;5.78;;;;;;;-141.50;100.00;63355.56;5025711;28;20084;-79
2022/07/07 10:39:36;;;;;;;8.15;6.93;;;;;;;-141.50;100.00;63355.56;5026333;28;20097;-81
2022/07/07 10:42:07;;;;;;;11.63;7.47;;;;;;;-141.50;100.00;63355.56;5025051;28;20053;-81
2022/07/07 10:44:37;;;;;;;10.25;7.60;;;;;;;-141.50;100.00;63355.56;5026546;28;20050;-80
2022/07/07 10:47:24;;;;;;;13.35;7.78;;;;;;;-141.50;100.00;63355.56;5048642;28;20529;-80
2022/07/07 10:49:55;;;;;;;10.35;7.50;;;;;;;-141.50;100.00;63355.56;5031114;28;20068;-80
2022/07/07 10:52:27;;;;;;;11.85;7.35;;;;;;;-141.50;100.00;63355.56;5048185;28;20288;-80
2022/07/07 10:55:02;;;;;;;10.15;7.40;;;;;;;-141.50;100.00;63355.56;5048037;28;20057;-79
2022/07/07 10:57:42;;;;;;;10.43;7.60;;;;;;;-141.50;100.00;63355.56;5042733;28;20057;-80
2022/07/07 11:00:10;;;;;;;10.40;6.13;;;;;;;-141.50;100.00;63355.56;5047238;28;20069;-80
2022/07/07 11:02:38;;;;;;;8.40;5.78;;;;;;;-141.50;100.00;63355.56;5045025;28;20049;-80
2022/07/07 11:05:13;;;;;;;9.15;6.10;;;;;;;-141.50;100.00;63355.56;5042992;28;20058;-79
2022/07/07 11:08:03;;;;;;;;;;;;;;;-141.50;100.00;63355.56;5025917;28;20132;-80
2022/07/07 11:10:38;;;;;;;7.80;4.88;;;;;;;-141.50;100.00;63355.56;5042580;28;20297;-80
2022/07/07 11:13:30;;;;;;;7.25;4.85;;;;;;;-141.50;100.00;63355.56;5043336;28;20053;-79
2022/07/07 11:16:09;;;;;;;7.32;5.40;;;;;;;-141.50;100.00;63355.56;5025962;28;20064;-81
2022/07/07 11:18:36;;;;;;;7.78;5.72;;;;;;;-141.50;100.00;63355.56;5026522;28;20104;-80